Time;durP1;ratioP1;P1;durP2;ratioP2;P2;SDS_P1;SDS_P2;PMS_P1;PMS_P2;Temp;Humidity;BMP_temperature;BMP_pressure;BME280_temperature;BME280_humidity;BME280_pressure;Samples;Min_cycle;Max_cycle;Signal;HPM_P1;HPM_P2
2022/04/19 00:01:04;;;;;;;4.90;2.50;;;10.20;84.40;;;;;;5092688;28;20115;-68
2022/04/19 00:03:30;;;;;;;;;;;10.10;85.30;;;;;;5094573;28;20020;-68
2022/04/19 00:05:55;;;;;;;4.18;2.20;;;10.10;85.90;;;;;;5092562;28;19953;-68
2022/04/19 00:08:21;;;;;;;5.27;2.63;;;10.10;86.30;;;;;;5093682;28;20040;-67
2022/04/19 00:10:47;;;;;;;4.30;2.20;;;10.00;86.90;;;;;;5094044;28;20028;-68
2022/04/19 00:13:16;;;;;;;4.80;2.57;;;9.90;86.90;;;;;;5092858;28;20273;-68
2022/04/19 00:15:42;;;;;;;4.35;2.80;;;9.90;86.80;;;;;;5092530;28;20021;-68
2022/04/19 00:18:08;;;;;;;3.37;2.13;;;9.80;87.00;;;;;;5093559;28;20031;-67
2022/04/19 00:20:35;;;;;;;4.32;2.10;;;9.80;87.20;;;;;;5093452;28;20028;-68
2022/04/19 00:23:03;;;;;;;5.45;2.25;;;9.80;87.70;;;;;;5091933;28;20085;-67
2022/04/19 00:25:29;;;;;;;5.65;2.38;;;9.70;88.60;;;;;;5093273;28;20060;-68
2022/04/19 00:27:54;;;;;;;7.07;2.30;;;9.70;89.90;;;;;;5092361;28;20101;-68
2022/04/19 00:30:20;;;;;;;5.27;2.30;;;9.70;89.90;;;;;;5091889;28;20446;-68
2022/04/19 00:32:46;;;;;;;4.43;2.40;;;9.60;90.00;;;;;;5093046;28;20032;-67
2022/04/19 00:35:12;;;;;;;4.78;2.60;;;9.60;90.20;;;;;;5093747;28;20780;-67
2022/04/19 00:37:39;;;;;;;3.17;2.25;;;9.60;90.40;;;;;;5091877;28;20032;-67
2022/04/19 00:40:08;;;;;;;3.33;2.60;;;9.50;90.60;;;;;;5091739;28;20039;-67
2022/04/19 00:42:34;;;;;;;4.72;2.30;;;9.50;90.80;;;;;;5093162;28;20095;-67
2022/04/19 00:45:03;;;;;;;4.43;2.70;;;9.40;91.10;;;;;;5093445;28;20043;-67
2022/04/19 00:47:32;;;;;;;5.60;2.60;;;9.50;91.60;;;;;;5094082;28;20031;-68
2022/04/19 00:50:01;;;;;;;5.43;2.65;;;9.40;91.90;;;;;;5092150;28;20035;-68
2022/04/19 00:52:30;;;;;;;5.10;3.08;;;9.50;92.50;;;;;;5093694;28;20016;-68
2022/04/19 00:54:57;;;;;;;4.85;2.70;;;9.40;92.70;;;;;;5094434;28;20103;-67
2022/04/19 00:57:24;;;;;;;;;;;9.30;93.10;;;;;;5094438;28;20016;-68
2022/04/19 00:59:57;;;;;;;5.38;2.70;;;9.30;93.50;;;;;;5093083;28;20390;-67
2022/04/19 01:02:24;;;;;;;5.57;2.53;;;9.20;93.80;;;;;;5094769;28;20158;-69
2022/04/19 01:04:49;;;;;;;6.18;2.55;;;9.10;94.40;;;;;;5093948;28;20032;-68
2022/04/19 01:07:18;;;;;;;4.97;2.47;;;9.10;94.90;;;;;;5093462;28;20039;-68
2022/04/19 01:09:44;;;;;;;4.68;2.63;;;9.10;95.50;;;;;;5092609;28;20032;-68
2022/04/19 01:14:55;;;;;;;3.70;2.58;;;9.00;96.90;;;;;;5093537;28;20170;-68
2022/04/19 01:17:22;;;;;;;5.25;2.25;;;9.00;97.40;;;;;;5092244;28;20406;-67
2022/04/19 01:19:49;;;;;;;5.38;2.35;;;9.00;97.60;;;;;;5091732;28;20045;-68
2022/04/19 01:22:15;;;;;;;3.95;2.58;;;8.90;96.90;;;;;;5092985;28;20435;-68
2022/04/19 01:24:43;;;;;;;3.70;2.30;;;8.90;96.70;;;;;;5091876;28;20020;-67
2022/04/19 01:27:10;;;;;;;4.50;2.30;;;8.80;96.30;;;;;;5095640;28;20538;-68
2022/04/19 01:29:36;;;;;;;2.92;2.10;;;8.80;96.20;;;;;;5096147;28;20031;-68
2022/04/19 01:32:03;;;;;;;3.95;2.25;;;8.70;96.30;;;;;;5098283;28;20036;-68
2022/04/19 01:34:29;;;;;;;4.30;2.20;;;8.60;96.50;;;;;;5098910;28;20038;-68
2022/04/19 01:36:55;;;;;;;3.80;2.30;;;8.60;96.70;;;;;;5098458;28;20020;-69
2022/04/19 01:42:06;;;;;;;5.38;2.50;;;8.50;96.80;;;;;;5097472;28;20077;-68
2022/04/19 01:44:33;;;;;;;5.45;2.78;;;8.50;97.10;;;;;;5098345;28;20024;-68
2022/04/19 01:47:00;;;;;;;3.72;2.47;;;8.50;97.50;;;;;;5100095;28;20016;-68
2022/04/19 01:49:26;;;;;;;3.58;2.55;;;8.50;97.60;;;;;;5099256;28;20107;-68
2022/04/19 01:51:52;;;;;;;3.83;2.43;;;8.50;97.70;;;;;;5099511;28;20056;-68
2022/04/19 01:54:17;;;;;;;5.80;2.60;;;8.50;97.80;;;;;;5097436;28;20021;-68
2022/04/19 01:56:44;;;;;;;4.57;2.63;;;8.50;97.80;;;;;;5097242;28;20095;-67
2022/04/19 01:59:09;;;;;;;;;;;8.40;97.90;;;;;;5097064;28;20406;-67
2022/04/19 02:01:35;;;;;;;4.55;3.17;;;8.30;98.60;;;;;;5099215;28;19908;-68
2022/04/19 02:04:01;;;;;;;4.40;2.60;;;8.20;99.10;;;;;;5106008;28;20053;-68
2022/04/19 02:06:27;;;;;;;5.37;2.47;;;8.10;99.60;;;;;;5105116;28;20039;-67
2022/04/19 02:08:52;;;;;;;;;;;7.90;99.90;;;;;;5106788;28;20035;-68
2022/04/19 02:11:18;;;;;;;4.10;2.30;;;7.80;99.90;;;;;;5102897;28;19911;-68
2022/04/19 02:13:44;;;;;;;8.37;2.40;;;7.70;99.90;;;;;;5099022;28;20131;-68
2022/04/19 02:16:09;;;;;;;5.43;3.10;;;7.70;99.90;;;;;;5105203;28;20454;-67
2022/04/19 02:18:35;;;;;;;4.13;2.60;;;7.70;99.90;;;;;;5096201;28;20122;-67
2022/04/19 02:21:00;;;;;;;5.07;2.67;;;7.70;99.90;;;;;;5095791;28;20040;-67
2022/04/19 02:23:26;;;;;;;6.40;2.80;;;7.60;99.90;;;;;;5095906;28;20024;-68
2022/04/19 02:25:55;;;;;;;4.78;2.60;;;7.60;99.90;;;;;;5095982;28;20106;-69
2022/04/19 02:28:21;;;;;;;6.35;2.78;;;7.50;99.90;;;;;;5095500;28;20024;-68
2022/04/19 02:30:47;;;;;;;3.35;2.30;;;7.50;99.90;;;;;;5095326;28;20031;-69
2022/04/19 02:33:13;;;;;;;5.37;3.00;;;7.40;99.90;;;;;;5094353;28;20055;-67
2022/04/19 02:35:39;;;;;;;6.17;2.80;;;7.40;99.90;;;;;;5094856;28;20039;-67
2022/04/19 02:38:05;;;;;;;5.85;2.78;;;7.40;99.90;;;;;;5095164;28;20023;-67
2022/04/19 02:40:31;;;;;;;3.73;2.43;;;7.40;99.90;;;;;;5094128;28;20028;-68
2022/04/19 02:42:56;;;;;;;3.93;2.47;;;7.40;99.90;;;;;;5095020;28;20103;-68
2022/04/19 02:45:23;;;;;;;3.50;2.50;;;7.50;99.90;;;;;;5093943;28;20270;-68
2022/04/19 02:48:01;;;;;;;7.68;3.13;;;7.50;99.90;;;;;;5094841;28;20024;-68
2022/04/19 02:50:27;;;;;;;7.03;3.13;;;7.50;99.90;;;;;;5094883;28;20444;-68
2022/04/19 02:52:52;;;;;;;6.70;2.40;;;7.50;99.90;;;;;;5094895;28;20042;-68
2022/04/19 02:55:18;;;;;;;5.13;2.60;;;7.40;99.90;;;;;;5094720;28;20031;-67
2022/04/19 02:57:44;;;;;;;6.53;2.83;;;7.60;99.90;;;;;;5094688;28;20028;-67
2022/04/19 03:00:10;;;;;;;4.07;2.57;;;7.70;99.90;;;;;;5094718;28;20107;-67
2022/04/19 03:02:35;;;;;;;4.53;2.40;;;7.70;99.90;;;;;;5093194;28;20073;-68
2022/04/19 03:05:01;;;;;;;5.67;2.83;;;7.60;99.90;;;;;;5093247;28;20028;-68
2022/04/19 03:07:26;;;;;;;5.93;3.40;;;7.50;99.90;;;;;;5094649;28;20522;-68
2022/04/19 03:09:52;;;;;;;4.80;2.77;;;7.30;99.90;;;;;;5094514;28;20158;-67
2022/04/19 03:12:18;;;;;;;4.70;2.63;;;7.20;99.90;;;;;;5094313;28;20073;-67
2022/04/19 03:14:43;;;;;;;4.53;2.87;;;7.20;99.90;;;;;;5094457;28;20028;-67
2022/04/19 03:17:09;;;;;;;3.20;2.20;;;7.20;99.90;;;;;;5094051;28;20104;-67
2022/04/19 03:19:34;;;;;;;4.57;2.63;;;7.10;99.90;;;;;;5093175;28;20063;-67
2022/04/19 03:22:00;;;;;;;4.53;2.83;;;7.10;99.90;;;;;;5094160;28;20111;-67
2022/04/19 03:30:14;;;;;;;4.85;2.85;;;7.10;99.90;;;;;;5052043;28;20561;-67
2022/04/19 03:32:44;;;;;;;5.40;2.85;;;7.10;99.90;;;;;;5095756;22;20131;-64
2022/04/19 03:35:11;;;;;;;5.20;2.50;;;7.10;99.90;;;;;;5092410;28;20484;-66
2022/04/19 03:37:39;;;;;;;;;;;7.00;99.90;;;;;;5092865;28;20028;-65
2022/04/19 03:40:06;;;;;;;8.10;2.90;;;7.00;99.90;;;;;;5093972;28;19915;-65
2022/04/19 03:42:31;;;;;;;7.05;2.72;;;7.00;99.90;;;;;;5091884;28;20031;-65
2022/04/19 03:44:57;;;;;;;8.03;2.83;;;6.90;99.90;;;;;;5093522;28;20103;-64
2022/04/19 03:47:22;;;;;;;4.57;2.87;;;6.90;99.90;;;;;;5091610;28;20059;-65
2022/04/19 03:49:48;;;;;;;4.77;2.83;;;6.80;99.90;;;;;;5093358;28;20031;-64
2022/04/19 03:52:14;;;;;;;4.22;2.63;;;6.80;99.90;;;;;;5093508;28;20024;-64
2022/04/19 03:54:40;;;;;;;5.97;2.58;;;6.80;99.90;;;;;;5094795;28;20020;-66
2022/04/19 03:57:07;;;;;;;5.10;3.70;;;6.80;99.90;;;;;;5094377;28;20542;-64
2022/04/19 03:59:34;;;;;;;7.30;3.58;;;6.80;99.90;;;;;;5091771;28;20020;-65
2022/04/19 04:02:00;;;;;;;4.25;2.67;;;6.70;99.90;;;;;;5091996;28;20027;-64
2022/04/19 04:04:30;;;;;;;4.45;3.10;;;6.60;99.90;;;;;;5093177;28;20434;-65
2022/04/19 04:06:57;;;;;;;3.83;2.70;;;6.50;99.90;;;;;;5093226;28;20479;-65
2022/04/19 04:09:24;;;;;;;5.82;2.90;;;6.60;99.90;;;;;;5091497;28;20119;-64
2022/04/19 04:11:49;;;;;;;5.68;2.75;;;6.70;99.90;;;;;;5092732;28;20020;-65
2022/04/19 04:14:15;;;;;;;6.33;3.70;;;6.70;99.90;;;;;;5092788;28;20028;-65
2022/04/19 04:16:40;;;;;;;5.17;3.07;;;6.80;99.90;;;;;;5093178;28;20099;-65
2022/04/19 04:19:06;;;;;;;5.13;2.63;;;6.80;99.90;;;;;;5092805;28;20027;-65
2022/04/19 04:21:31;;;;;;;5.63;3.37;;;6.70;99.90;;;;;;5091418;28;20036;-65
2022/04/19 04:23:57;;;;;;;5.43;3.40;;;6.70;99.90;;;;;;5091704;28;20031;-65
2022/04/19 04:26:22;;;;;;;4.40;3.17;;;6.70;99.90;;;;;;5093479;28;20090;-65
2022/04/19 04:28:48;;;;;;;4.97;2.37;;;6.60;99.90;;;;;;5094475;28;20028;-65
2022/04/19 04:31:13;;;;;;;4.70;3.17;;;6.40;99.90;;;;;;5093295;28;20505;-65
2022/04/19 04:33:39;;;;;;;7.47;3.07;;;6.40;99.90;;;;;;5093059;28;20050;-64
2022/04/19 04:36:05;;;;;;;3.80;2.80;;;6.30;99.90;;;;;;5092919;28;20131;-65
2022/04/19 04:38:30;;;;;;;7.13;3.63;;;6.30;99.90;;;;;;5092448;28;20024;-64
2022/04/19 04:40:56;;;;;;;5.27;3.23;;;6.30;99.90;;;;;;5090970;28;20123;-66
2022/04/19 04:43:21;;;;;;;4.80;2.97;;;6.30;99.90;;;;;;5092936;28;20067;-68
2022/04/19 04:49:35;;;;;;;4.37;2.80;;;6.30;99.90;;;;;;5092722;28;20035;-67
2022/04/19 04:51:16;;;;;;;4.68;2.45;;;6.40;99.90;;;;;;5092241;28;20515;-64
2022/04/19 04:53:42;;;;;;;6.50;2.63;;;6.50;99.90;;;;;;5090921;28;20028;-64
2022/04/19 04:56:07;;;;;;;6.40;3.10;;;6.40;99.90;;;;;;5092599;28;20086;-66
2022/04/19 04:58:33;;;;;;;5.53;2.87;;;6.40;99.90;;;;;;5093038;28;20122;-65
2022/04/19 05:00:59;;;;;;;5.93;3.20;;;6.30;99.90;;;;;;5096349;28;20116;-64
2022/04/19 05:03:24;;;;;;;5.80;3.37;;;6.30;99.90;;;;;;5097158;28;20032;-67
2022/04/19 05:05:50;;;;;;;4.90;3.03;;;6.40;99.90;;;;;;5097093;28;20036;-65
2022/04/19 05:08:18;;;;;;;6.37;3.10;;;6.40;99.90;;;;;;5097805;28;20032;-64
2022/04/19 05:10:44;;;;;;;5.25;2.83;;;6.50;99.90;;;;;;5097536;28;20024;-65
2022/04/19 05:13:09;;;;;;;4.93;3.33;;;6.60;99.90;;;;;;5096987;28;20029;-65
2022/04/19 05:15:35;;;;;;;5.63;3.20;;;6.70;99.90;;;;;;5096202;28;20266;-65
2022/04/19 05:18:01;;;;;;;5.27;3.17;;;6.80;99.90;;;;;;5096477;28;20024;-66
2022/04/19 05:20:27;;;;;;;5.20;3.30;;;6.80;99.90;;;;;;5094975;28;20024;-66
2022/04/19 05:22:52;;;;;;;6.97;3.47;;;6.90;99.90;;;;;;5095868;28;20069;-66
2022/04/19 05:25:18;;;;;;;7.13;3.47;;;6.90;99.90;;;;;;5096060;28;20590;-66
2022/04/19 05:27:43;;;;;;;4.77;3.40;;;6.90;99.90;;;;;;5095821;28;20396;-66
2022/04/19 05:30:09;;;;;;;8.10;2.80;;;7.00;99.90;;;;;;5094359;28;20028;-66
2022/04/19 05:32:35;;;;;;;4.90;3.00;;;7.00;99.90;;;;;;5095696;28;20028;-66
2022/04/19 05:35:01;;;;;;;5.63;3.33;;;7.10;99.90;;;;;;5095086;28;20031;-66
2022/04/19 05:37:26;;;;;;;5.45;3.03;;;7.10;99.90;;;;;;5095325;28;20115;-66
2022/04/19 05:39:52;;;;;;;4.47;3.03;;;7.20;99.90;;;;;;5096359;28;20032;-65
2022/04/19 05:42:18;;;;;;;5.50;3.70;;;7.20;99.90;;;;;;5095502;28;20028;-65
2022/04/19 05:44:43;;;;;;;6.13;3.03;;;7.20;99.90;;;;;;5095800;28;20091;-67
2022/04/19 05:47:09;;;;;;;7.18;3.30;;;7.20;99.90;;;;;;5095840;28;20028;-67
2022/04/19 05:49:35;;;;;;;6.43;3.42;;;7.20;99.90;;;;;;5095480;28;20092;-68
2022/04/19 05:52:02;;;;;;;6.85;3.15;;;7.30;99.90;;;;;;5095638;28;20104;-68
2022/04/19 05:54:27;;;;;;;6.35;3.30;;;7.30;99.90;;;;;;5094097;28;20028;-66
2022/04/19 05:56:53;;;;;;;8.38;3.38;;;7.40;99.90;;;;;;5095432;28;20161;-67
2022/04/19 05:59:19;;;;;;;9.73;3.10;;;7.50;99.90;;;;;;5095546;28;20028;-66
2022/04/19 06:04:54;;;;;;;6.95;3.67;;;7.50;99.90;;;;;;5078926;28;20035;-66
2022/04/19 06:07:29;;;;;;;7.78;3.85;;;7.60;99.90;;;;;;5102015;28;20028;-66
2022/04/19 06:09:56;;;;;;;12.18;3.83;;;7.70;99.90;;;;;;5094119;28;20024;-65
2022/04/19 06:12:22;;;;;;;7.13;3.55;;;7.70;99.90;;;;;;5093894;28;20107;-69
2022/04/19 06:14:47;;;;;;;8.30;4.40;;;7.80;99.90;;;;;;5093425;28;20048;-67
2022/04/19 06:17:15;;;;;;;6.20;3.60;;;7.90;99.90;;;;;;5094678;28;20020;-67
2022/04/19 06:19:41;;;;;;;9.10;4.03;;;8.00;99.90;;;;;;5094801;28;20441;-68
2022/04/19 06:22:08;;;;;;;14.35;7.50;;;8.00;99.90;;;;;;5096863;28;20086;-67
2022/04/19 06:24:34;;;;;;;7.18;3.67;;;8.10;99.90;;;;;;5094846;28;20020;-67
2022/04/19 06:27:00;;;;;;;6.78;3.17;;;8.20;99.90;;;;;;5094745;28;20027;-68
2022/04/19 06:29:25;;;;;;;5.17;3.00;;;8.20;99.90;;;;;;5095046;28;20074;-63
2022/04/19 06:31:51;;;;;;;8.80;3.00;;;8.30;99.90;;;;;;5094190;28;20104;-71
2022/04/19 06:34:17;;;;;;;7.63;3.70;;;8.40;99.90;;;;;;5093377;28;20020;-70
2022/04/19 06:36:46;;;;;;;8.83;4.03;;;8.40;99.90;;;;;;5093844;28;20503;-69
2022/04/19 06:39:11;;;;;;;6.25;2.78;;;8.50;99.90;;;;;;5095343;28;20403;-70
2022/04/19 06:41:37;;;;;;;7.90;3.35;;;8.60;99.90;;;;;;5094343;28;20122;-67
2022/04/19 06:44:08;;;;;;;8.87;3.17;;;8.60;99.90;;;;;;5094242;28;20429;-66
2022/04/19 06:46:36;;;;;;;32.97;4.35;;;8.70;99.90;;;;;;5094421;28;20384;-68
2022/04/19 06:49:03;;;;;;;4.93;2.88;;;8.80;99.90;;;;;;5094488;28;20103;-67
2022/04/19 06:51:30;;;;;;;5.53;2.90;;;8.80;99.90;;;;;;5094161;28;20024;-66
2022/04/19 06:53:56;;;;;;;6.55;2.85;;;8.90;99.90;;;;;;5094640;28;20020;-67
2022/04/19 06:56:21;;;;;;;7.53;2.88;;;9.00;99.90;;;;;;5094309;28;20058;-67
2022/04/19 06:58:48;;;;;;;11.17;3.83;;;9.00;99.90;;;;;;5094231;28;20020;-67
2022/04/19 07:01:14;;;;;;;5.75;2.67;;;9.10;99.90;;;;;;5095129;28;20093;-66
2022/04/19 07:03:40;;;;;;;5.13;3.00;;;9.10;99.90;;;;;;5095641;28;20023;-66
2022/04/19 07:06:06;;;;;;;6.27;3.30;;;9.20;99.90;;;;;;5093041;28;20098;-67
2022/04/19 07:08:32;;;;;;;6.93;2.53;;;9.30;99.90;;;;;;5094386;28;20461;-68
2022/04/19 07:10:58;;;;;;;3.38;2.40;;;9.40;99.90;;;;;;5093685;28;20078;-67
2022/04/19 07:13:24;;;;;;;5.15;2.45;;;9.50;99.90;;;;;;5092495;28;20074;-70
2022/04/19 07:15:50;;;;;;;3.53;2.27;;;9.50;99.90;;;;;;5092336;28;20028;-70
2022/04/19 07:18:17;;;;;;;;;;;9.60;99.90;;;;;;5094094;28;20024;-67
2022/04/19 07:26:54;;;;;;;6.53;2.17;;;9.90;99.70;;;;;;5094160;28;20071;-66
2022/04/19 07:29:01;;;;;;;5.82;2.45;;;10.10;99.40;;;;;;5087283;28;20123;-63
2022/04/19 07:31:27;;;;;;;4.43;2.35;;;10.20;99.30;;;;;;5092975;28;20043;-63
2022/04/19 07:33:53;;;;;;;7.00;2.80;;;10.30;99.60;;;;;;5093416;28;20553;-67
2022/04/19 07:36:19;;;;;;;3.53;2.27;;;10.40;99.30;;;;;;5092773;28;20102;-67
2022/04/19 07:38:46;;;;;;;5.47;2.20;;;10.40;99.30;;;;;;5093288;28;20016;-66
2022/04/19 07:41:12;;;;;;;5.45;3.38;;;10.50;99.10;;;;;;5093602;28;20108;-67
2022/04/19 07:43:38;;;;;;;5.13;2.03;;;10.50;98.90;;;;;;5093178;28;20047;-67
2022/04/19 07:46:04;;;;;;;4.10;2.17;;;10.60;98.70;;;;;;5093443;28;20028;-67
2022/04/19 07:48:31;;;;;;;6.22;2.55;;;10.70;98.70;;;;;;5093410;28;20031;-67
2022/04/19 07:50:56;;;;;;;;;;;10.80;98.70;;;;;;5092481;28;20031;-66
2022/04/19 07:53:23;;;;;;;5.65;2.30;;;10.80;98.60;;;;;;5092271;28;19920;-65
2022/04/19 07:55:49;;;;;;;2.92;2.03;;;10.90;98.30;;;;;;5093581;28;20054;-66
2022/04/19 07:58:14;;;;;;;3.80;2.60;;;11.00;98.20;;;;;;5092094;28;20035;-66
2022/04/19 08:00:40;;;;;;;10.87;9.97;;;11.00;98.30;;;;;;5093458;28;20024;-68
2022/04/19 08:03:05;;;;;;;10.90;6.60;;;11.10;98.10;;;;;;5091949;28;20631;-69
2022/04/19 08:05:31;;;;;;;8.00;5.40;;;11.30;98.00;;;;;;5093592;28;20046;-68
2022/04/19 08:07:57;;;;;;;4.93;2.50;;;11.30;97.60;;;;;;5092797;28;20325;-68
2022/04/19 08:10:23;;;;;;;6.35;3.38;;;11.40;96.90;;;;;;5091647;28;20077;-69
2022/04/19 08:12:49;;;;;;;7.10;3.05;;;11.60;96.60;;;;;;5093615;28;20039;-68
2022/04/19 08:15:15;;;;;;;5.20;2.65;;;11.70;96.40;;;;;;5093325;28;20100;-69
2022/04/19 08:17:40;;;;;;;5.70;2.80;;;11.80;95.70;;;;;;5093117;28;20051;-68
2022/04/19 08:20:07;;;;;;;5.07;2.20;;;11.90;95.30;;;;;;5091481;28;20074;-68
2022/04/19 08:22:35;;;;;;;6.97;2.53;;;12.00;95.00;;;;;;5092752;28;20028;-68
2022/04/19 08:25:02;;;;;;;5.20;2.22;;;12.20;94.50;;;;;;5092918;28;20046;-68
2022/04/19 08:27:27;;;;;;;5.40;2.70;;;12.30;94.00;;;;;;5093071;28;20028;-67
2022/04/19 08:29:53;;;;;;;5.63;2.53;;;12.40;94.10;;;;;;5091846;28;20028;-67
2022/04/19 08:32:18;;;;;;;8.93;2.37;;;12.70;94.30;;;;;;5093268;28;20028;-67
2022/04/19 08:34:45;;;;;;;7.53;2.50;;;13.40;93.00;;;;;;5095102;28;20095;-68
2022/04/19 08:37:11;;;;;;;6.72;2.20;;;15.60;90.40;;;;;;5098825;28;20027;-67
2022/04/19 08:39:37;;;;;;;4.20;2.10;;;18.30;80.70;;;;;;5097084;28;20024;-68
2022/04/19 08:42:06;;;;;;;5.05;2.35;;;21.30;69.40;;;;;;5096670;28;20311;-67
2022/04/19 08:44:35;;;;;;;5.10;2.20;;;23.40;62.10;;;;;;5096944;28;20063;-67
2022/04/19 08:47:06;;;;;;;5.18;2.20;;;24.80;56.90;;;;;;5095049;28;20020;-67
2022/04/19 08:49:39;;;;;;;5.93;2.22;;;26.60;53.10;;;;;;5096684;28;20031;-69
2022/04/19 08:52:05;;;;;;;3.08;2.25;;;27.10;51.30;;;;;;5096593;28;20039;-65
2022/04/19 08:57:31;;;;;;;4.72;2.15;;;29.00;48.20;;;;;;5096635;28;20047;-68
2022/04/19 09:00:03;;;;;;;5.55;2.50;;;29.30;47.10;;;;;;5096612;28;20023;-66
2022/04/19 09:02:31;;;;;;;4.80;2.28;;;29.80;46.20;;;;;;5096095;28;20103;-66
2022/04/19 09:05:12;;;;;;;6.82;2.40;;;30.80;44.80;;;;;;5094675;28;20024;-66
2022/04/19 09:07:37;;;;;;;3.30;2.40;;;31.40;44.20;;;;;;5096419;28;20020;-66
2022/04/19 09:10:06;;;;;;;5.88;3.05;;;30.60;43.70;;;;;;5094543;28;20161;-65
2022/04/19 09:12:32;;;;;;;8.52;2.97;;;30.50;44.00;;;;;;5096281;28;20020;-66
2022/04/19 09:15:00;;;;;;;5.85;2.35;;;30.60;43.00;;;;;;5096249;28;20016;-68
2022/04/19 09:17:36;;;;;;;5.20;2.30;;;31.20;43.30;;;;;;5096096;28;20073;-66
2022/04/19 09:20:19;;;;;;;4.63;2.40;;;31.50;42.30;;;;;;5096002;28;20059;-66
2022/04/19 09:22:48;;;;;;;4.47;2.58;;;32.00;41.80;;;;;;5094355;28;20368;-66
2022/04/19 09:25:24;;;;;;;6.30;2.88;;;30.60;42.10;;;;;;5096236;28;20111;-66
2022/04/19 09:27:50;;;;;;;;;;;29.40;42.90;;;;;;5096143;28;20481;-66
2022/04/19 09:30:34;;;;;;;4.82;2.75;;;29.50;43.30;;;;;;5095707;28;19908;-66
2022/04/19 09:33:14;;;;;;;3.60;2.42;;;31.30;42.70;;;;;;5096168;28;20036;-64
2022/04/19 09:35:48;;;;;;;6.90;2.50;;;32.10;42.00;;;;;;5095976;28;20028;-66
2022/04/19 09:38:14;;;;;;;3.70;2.55;;;32.20;41.80;;;;;;5096285;28;20024;-67
2022/04/19 09:40:45;;;;;;;4.07;2.55;;;32.50;41.70;;;;;;5095317;28;20024;-68
2022/04/19 09:43:17;;;;;;;3.67;2.47;;;33.10;40.60;;;;;;5095376;28;20016;-66
2022/04/19 09:45:51;;;;;;;3.65;2.47;;;32.90;40.70;;;;;;5094207;28;20122;-67
2022/04/19 09:48:34;;;;;;;2.78;2.55;;;32.60;40.50;;;;;;5095637;28;20361;-66
2022/04/19 09:51:05;;;;;;;4.53;2.60;;;33.40;40.30;;;;;;5095419;28;20158;-66
2022/04/19 09:53:42;;;;;;;5.97;2.65;;;35.30;38.70;;;;;;5095332;28;20031;-66
2022/04/19 09:56:13;;;;;;;3.65;2.72;;;35.20;38.30;;;;;;5095379;28;20013;-66
2022/04/19 09:58:49;;;;;;;3.88;2.88;;;33.90;38.50;;;;;;5095110;28;20024;-65
2022/04/19 10:09:31;;;;;;;6.85;3.40;;;33.00;39.20;;;;;;5094795;28;20111;-66
2022/04/19 10:11:57;;;;;;;4.00;3.05;;;33.70;39.20;;;;;;5095512;28;20456;-65
2022/04/19 10:14:24;;;;;;;6.28;3.13;;;33.60;38.30;;;;;;5095551;28;20027;-65
2022/04/19 10:16:49;;;;;;;5.18;2.90;;;33.60;37.80;;;;;;5094733;28;20020;-67
2022/04/19 10:19:16;;;;;;;4.32;3.00;;;34.10;38.40;;;;;;5094298;28;20530;-65
2022/04/19 10:21:44;;;;;;;4.32;3.05;;;34.90;37.60;;;;;;5094652;28;20114;-66
2022/04/19 10:24:14;;;;;;;5.88;3.60;;;34.70;37.30;;;;;;5094448;28;20020;-65
2022/04/19 10:26:48;;;;;;;3.50;3.00;;;33.90;37.30;;;;;;5094316;28;20023;-66
2022/04/19 10:29:20;;;;;;;4.50;3.30;;;33.40;37.90;;;;;;5094335;28;20035;-65
2022/04/19 10:32:08;;;;;;;3.83;3.00;;;32.30;37.60;;;;;;5093981;28;20027;-65
2022/04/19 10:34:38;;;;;;;5.05;3.50;;;32.40;38.50;;;;;;5094599;28;20021;-66
2022/04/19 10:37:15;;;;;;;4.10;3.10;;;33.50;37.50;;;;;;5094525;28;20099;-64
2022/04/19 10:39:46;;;;;;;3.25;2.80;;;34.40;37.60;;;;;;5094317;28;20031;-65
2022/04/19 10:42:33;;;;;;;3.08;2.70;;;34.10;36.50;;;;;;5092864;28;20024;-64
2022/04/19 10:45:19;;;;;;;3.83;3.20;;;33.60;36.60;;;;;;5094054;28;20507;-65
2022/04/19 10:47:51;;;;;;;4.00;3.08;;;34.30;37.20;;;;;;5094481;28;20064;-65
2022/04/19 10:50:29;;;;;;;3.42;3.00;;;35.10;37.00;;;;;;5094849;28;20389;-64
2022/04/19 10:52:59;;;;;;;4.18;2.63;;;34.10;35.60;;;;;;5094428;28;20012;-66
2022/04/19 10:55:27;;;;;;;4.32;2.70;;;33.70;36.70;;;;;;5094117;28;20020;-66
2022/04/19 10:58:23;;;;;;;4.00;2.97;;;34.20;36.00;;;;;;5093757;28;20024;-65
2022/04/19 11:00:51;;;;;;;10.18;2.30;;;34.10;35.30;;;;;;5094355;28;20472;-66
2022/04/19 11:03:37;;;;;;;5.90;2.63;;;33.40;38.40;;;;;;5092839;28;20372;-67
2022/04/19 11:06:04;;;;;;;;;;;32.60;36.00;;;;;;5094237;28;20036;-68
2022/04/19 11:08:29;;;;;;;4.65;2.70;;;31.30;36.80;;;;;;5094032;28;20321;-66
2022/04/19 11:10:55;;;;;;;4.15;2.72;;;29.80;36.80;;;;;;5093440;28;20028;-67
2022/04/19 11:13:21;;;;;;;6.03;2.80;;;27.80;39.00;;;;;;5093686;28;20116;-65
2022/04/19 11:15:57;;;;;;;4.25;2.38;;;26.10;39.90;;;;;;5093885;28;20028;-67
2022/04/19 11:18:27;;;;;;;3.53;2.50;;;25.30;44.40;;;;;;5093696;28;20022;-67
2022/04/19 11:20:54;;;;;;;3.42;2.45;;;24.20;40.00;;;;;;5093833;28;20020;-67
2022/04/19 11:23:22;;;;;;;3.08;2.30;;;23.50;43.70;;;;;;5094320;28;20082;-67
2022/04/19 11:25:49;;;;;;;3.42;2.42;;;22.90;41.20;;;;;;5093568;28;20047;-68
2022/04/19 11:28:24;;;;;;;6.97;2.60;;;22.40;42.70;;;;;;5093522;28;20412;-66
2022/04/19 11:30:50;;;;;;;4.50;2.60;;;22.10;45.30;;;;;;5093289;28;20127;-67
2022/04/19 11:33:26;;;;;;;3.22;2.83;;;21.60;44.20;;;;;;5093279;28;20093;-67
2022/04/19 11:36:13;;;;;;;4.05;2.63;;;21.30;45.40;;;;;;5093501;28;20028;-67
2022/04/19 11:38:42;;;;;;;3.22;2.35;;;21.00;46.10;;;;;;5093556;28;20096;-67
2022/04/19 11:46:45;;;;;;;5.90;2.47;;;20.70;45.10;;;;;;5093304;28;20035;-66
2022/04/19 11:49:34;;;;;;;4.18;2.05;;;20.60;45.30;;;;;;5093356;28;20024;-66
2022/04/19 11:52:09;;;;;;;4.25;2.40;;;20.40;44.40;;;;;;5092007;28;20035;-66
2022/04/19 11:54:35;;;;;;;3.92;2.40;;;20.30;45.60;;;;;;5093515;28;20024;-66
2022/04/19 11:57:03;;;;;;;4.55;2.30;;;20.10;45.80;;;;;;5093797;28;20522;-66
2022/04/19 11:59:41;;;;;;;4.93;2.85;;;20.00;45.50;;;;;;5093730;28;20454;-65
2022/04/19 12:02:17;;;;;;;6.07;3.78;;;20.00;46.50;;;;;;5093325;28;20012;-66
2022/04/19 12:04:55;;;;;;;3.50;2.30;;;19.70;46.80;;;;;;5092881;28;20023;-66
2022/04/19 12:07:21;;;;;;;2.40;2.20;;;19.70;47.10;;;;;;5093105;28;20028;-65
2022/04/19 12:09:48;;;;;;;;;;;19.70;47.60;;;;;;5092556;28;20062;-67
2022/04/19 12:12:14;;;;;;;4.85;2.88;;;19.60;46.00;;;;;;5093430;28;19904;-67
2022/04/19 12:14:39;;;;;;;5.63;2.30;;;19.50;46.70;;;;;;5092966;28;20365;-66
2022/04/19 12:17:06;;;;;;;4.35;2.40;;;19.50;45.50;;;;;;5092737;28;20365;-65
2022/04/19 12:19:42;;;;;;;3.40;2.65;;;19.40;45.80;;;;;;5091379;28;20032;-65
2022/04/19 12:22:18;;;;;;;4.00;2.17;;;19.30;44.60;;;;;;5092825;28;20109;-66
2022/04/19 12:24:55;;;;;;;4.53;2.10;;;19.30;45.30;;;;;;5092917;28;20032;-65
2022/04/19 12:27:37;;;;;;;4.95;2.50;;;19.30;44.10;;;;;;5091687;28;20511;-66
2022/04/19 12:30:14;;;;;;;4.25;2.70;;;19.40;44.70;;;;;;5092766;28;20421;-66
2022/04/19 12:32:58;;;;;;;3.28;2.28;;;19.40;44.30;;;;;;5092776;28;20035;-66
2022/04/19 12:35:34;;;;;;;4.00;2.50;;;19.40;44.60;;;;;;5092487;28;20025;-66
2022/04/19 12:38:13;;;;;;;7.82;4.55;;;19.30;45.20;;;;;;5092588;28;20471;-66
2022/04/19 12:40:39;;;;;;;3.60;2.00;;;19.20;45.50;;;;;;5092842;28;20153;-66
2022/04/19 12:43:05;;;;;;;4.75;1.77;;;19.30;44.80;;;;;;5092525;28;20024;-66
2022/04/19 12:45:32;;;;;;;3.70;2.42;;;19.40;45.20;;;;;;5092816;28;20118;-66
2022/04/19 12:48:00;;;;;;;3.40;2.33;;;19.40;43.80;;;;;;5091180;28;20448;-66
2022/04/19 12:50:27;;;;;;;4.50;2.22;;;19.50;43.90;;;;;;5093196;28;20117;-65
2022/04/19 12:52:53;;;;;;;5.05;1.80;;;19.60;42.90;;;;;;5093125;28;20012;-66
2022/04/19 13:05:14;;;;;;;5.95;2.80;;;19.50;41.60;;;;;;5092913;28;20031;-66
2022/04/19 13:13:09;;;;;;;7.80;3.30;;;19.50;44.30;;;;;;5092547;28;20085;-66
2022/04/19 13:15:35;;;;;;;4.55;3.03;;;19.40;44.40;;;;;;5092204;28;20473;-66
2022/04/19 13:18:01;;;;;;;6.07;3.20;;;19.40;44.10;;;;;;5092468;28;20065;-66
2022/04/19 13:20:28;;;;;;;5.82;3.10;;;19.40;44.00;;;;;;5093522;28;20099;-66
2022/04/19 13:22:54;;;;;;;4.68;2.75;;;19.40;44.60;;;;;;5096384;28;20020;-66
2022/04/19 13:25:20;;;;;;;7.20;2.92;;;19.50;45.30;;;;;;5095861;28;20024;-67
2022/04/19 13:27:47;;;;;;;5.13;2.50;;;19.60;43.50;;;;;;5096062;28;20024;-66
2022/04/19 13:30:13;;;;;;;5.68;3.15;;;19.60;43.00;;;;;;5095517;28;20460;-67
2022/04/19 13:32:39;;;;;;;3.90;3.00;;;19.60;43.20;;;;;;5095682;28;20119;-67
2022/04/19 13:35:06;;;;;;;;;;;19.60;43.40;;;;;;5098369;28;20054;-67
2022/04/19 13:40:17;;;;;;;5.93;3.65;;;19.60;43.90;;;;;;5095412;28;20031;-66
2022/04/19 13:42:42;;;;;;;5.50;3.38;;;19.60;43.00;;;;;;5094057;28;20016;-67
2022/04/19 13:45:08;;;;;;;6.18;4.05;;;19.60;43.10;;;;;;5093885;28;20093;-66
2022/04/19 13:47:34;;;;;;;13.98;3.80;;;19.60;43.20;;;;;;5095244;28;20063;-66
2022/04/19 13:49:59;;;;;;;4.63;3.60;;;19.60;43.40;;;;;;5094221;28;20024;-66
2022/04/19 13:52:25;;;;;;;4.90;3.13;;;19.50;43.30;;;;;;5095546;28;20099;-65
2022/04/19 13:54:50;;;;;;;5.82;3.15;;;19.50;44.30;;;;;;5095239;28;20054;-67
2022/04/19 13:57:16;;;;;;;5.47;3.47;;;19.60;43.60;;;;;;5095424;28;20333;-66